createdAt,value
2023-05-01T00:00:58.602Z,100954.94
2023-05-01T00:03:25.838Z,100946.22
2023-05-01T00:05:59.703Z,100947.97
2023-05-01T00:08:26.793Z,100950.69
2023-05-01T00:10:54.287Z,100954.31
2023-05-01T00:13:23.462Z,100952.59
2023-05-01T00:15:51.086Z,100953.63
2023-05-01T00:18:18.502Z,100951.06
2023-05-01T00:20:45.561Z,100945.78
2023-05-01T00:23:13.142Z,100945.84
2023-05-01T00:25:40.822Z,100957.41
2023-05-01T00:28:07.997Z,100959.09
2023-05-01T00:30:36.009Z,100957.41
2023-05-01T00:33:03.244Z,100954.84
2023-05-01T00:35:31.437Z,100946.38
2023-05-01T00:37:59.001Z,100940.97
2023-05-01T00:40:26.148Z,100946.44
2023-05-01T00:42:53.112Z,100936.81
2023-05-01T00:45:20.763Z,100945.59
2023-05-01T00:47:48.372Z,100953.75
2023-05-01T00:50:15.459Z,100947.59
2023-05-01T00:52:42.828Z,100938.78
2023-05-01T00:55:10.063Z,100947.66
2023-05-01T00:57:37.487Z,100944.16
2023-05-01T01:00:05.751Z,100941.59
2023-05-01T01:02:33.318Z,100945.13
2023-05-01T01:05:00.542Z,100938.19
2023-05-01T01:08:09.570Z,100943.56
2023-05-01T01:10:42.517Z,100946.22
2023-05-01T01:13:15.215Z,100949.84
2023-05-01T01:16:08.265Z,100935.91
2023-05-01T01:18:48.936Z,100928.81
2023-05-01T01:21:23.914Z,100932.38
2023-05-01T01:24:03.808Z,100930.78
2023-05-01T01:26:50.707Z,100935.16
2023-05-01T01:29:44.724Z,100936.06
2023-05-01T01:32:24.247Z,100925.56
2023-05-01T01:34:55.681Z,100923.78
2023-05-01T01:37:33.734Z,100930.88
2023-05-01T01:40:08.266Z,100930.88
2023-05-01T01:42:49.907Z,100932.66
2023-05-01T01:45:23.530Z,100932.66
2023-05-01T01:47:53.591Z,100941.50
2023-05-01T01:50:25.051Z,100934.47
2023-05-01T01:52:53.461Z,100930.13
2023-05-01T01:55:25.725Z,100930.13
2023-05-01T01:57:53.586Z,100931.91
2023-05-01T02:00:22.131Z,100922.25
2023-05-01T02:02:51.193Z,100924.91
2023-05-01T02:05:20.612Z,100923.09
2023-05-01T02:07:50.652Z,100922.25
2023-05-01T02:10:19.308Z,100916.00
2023-05-01T02:12:48.796Z,100915.22
2023-05-01T02:15:18.659Z,100908.56
2023-05-01T02:17:46.410Z,100909.72
2023-05-01T02:20:14.469Z,100902.91
2023-05-01T02:22:42.471Z,100911.63
2023-05-01T02:25:12.376Z,100907.25
2023-05-01T02:27:45.301Z,100902.91
2023-05-01T02:30:12.804Z,100895.91
2023-05-01T02:32:40.267Z,100896.88
2023-05-01T02:35:08.168Z,100905.75
2023-05-01T02:37:35.110Z,100903.22
2023-05-01T02:40:03.376Z,100905.84
2023-05-01T02:42:32.062Z,100911.97
2023-05-01T02:45:04.378Z,100905.84
2023-05-01T02:47:34.176Z,100908.56
2023-05-01T02:50:02.439Z,100911.22
2023-05-01T02:52:29.935Z,100909.50
2023-05-01T02:54:57.563Z,100909.44
2023-05-01T02:57:24.717Z,100912.16
2023-05-01T02:59:51.642Z,100916.53
2023-05-01T03:02:18.846Z,100901.66
2023-05-01T03:04:45.863Z,100902.53
2023-05-01T03:07:12.872Z,100910.47
2023-05-01T03:09:39.872Z,100907.72
2023-05-01T03:12:06.826Z,100905.94
2023-05-01T03:14:33.844Z,100906.03
2023-05-01T03:17:01.199Z,100919.88
2023-05-01T03:19:28.446Z,100911.81
2023-05-01T03:21:55.391Z,100901.19
2023-05-01T03:24:22.246Z,100897.78
2023-05-01T03:26:49.179Z,100893.44
2023-05-01T03:29:16.137Z,100896.06
2023-05-01T03:31:43.113Z,100894.22
2023-05-01T03:34:10.098Z,100895.91
2023-05-01T03:36:37.043Z,100892.31
2023-05-01T03:39:05.228Z,100895.72
2023-05-01T03:41:32.168Z,100888.69
2023-05-01T03:43:59.192Z,100881.53
2023-05-01T03:46:26.216Z,100891.28
2023-05-01T03:48:53.171Z,100895.72
2023-05-01T03:51:20.167Z,100885.97
2023-05-01T03:53:47.065Z,100892.13
2023-05-01T03:56:14.227Z,100897.44
2023-05-01T03:58:41.336Z,100896.66
2023-05-01T04:01:08.249Z,100900.16
2023-05-01T04:03:35.263Z,100896.19
2023-05-01T04:06:02.915Z,100911.63
2023-05-01T04:08:29.943Z,100904.44
2023-05-01T04:10:56.986Z,100905.47
2023-05-01T04:13:23.924Z,100907.94
2023-05-01T04:15:50.894Z,100917.69
2023-05-01T04:18:17.918Z,100920.34
2023-05-01T04:20:45.015Z,100918.84
2023-05-01T04:23:12.489Z,100923.09
2023-05-01T04:25:39.508Z,100928.31
2023-05-01T04:28:06.449Z,100928.31
2023-05-01T04:30:34.251Z,100925.81
2023-05-01T04:33:02.171Z,100937.03
2023-05-01T04:35:29.189Z,100938.84
2023-05-01T04:37:56.169Z,100942.25
2023-05-01T04:40:23.099Z,100947.53
2023-05-01T04:42:50.080Z,100945.75
2023-05-01T04:45:17.176Z,100944.78
2023-05-01T04:47:44.707Z,100947.44
2023-05-01T04:50:12.234Z,100954.56
2023-05-01T04:52:39.556Z,100952.00
2023-05-01T04:55:07.088Z,100958.16
2023-05-01T04:57:34.107Z,100953.72
2023-05-01T05:00:01.297Z,100957.13
2023-05-01T05:02:28.279Z,100956.25
2023-05-01T05:04:56.706Z,100958.91
2023-05-01T05:07:23.972Z,100963.47
2023-05-01T05:09:51.251Z,100967.50
2023-05-01T05:12:18.241Z,100957.28
2023-05-01T05:14:45.341Z,100960.53
2023-05-01T05:17:12.379Z,100955.03
2023-05-01T05:19:39.435Z,100953.16
2023-05-01T05:22:06.419Z,100953.06
2023-05-01T05:24:33.473Z,100957.34
2023-05-01T05:27:00.390Z,100957.25
2023-05-01T05:29:27.550Z,100963.41
2023-05-01T05:31:54.633Z,100964.25
2023-05-01T05:34:21.688Z,100962.56
2023-05-01T05:36:48.655Z,100972.84
2023-05-01T05:39:15.857Z,100962.06
2023-05-01T05:41:42.838Z,100962.66
2023-05-01T05:44:09.839Z,100964.25
2023-05-01T05:46:36.890Z,100967.69
2023-05-01T05:49:03.867Z,100968.44
2023-05-01T05:51:30.843Z,100965.31
2023-05-01T05:53:57.925Z,100967.19
2023-05-01T05:56:24.920Z,100966.41
2023-05-01T05:58:51.886Z,100973.44
2023-05-01T06:01:18.886Z,100974.03
2023-05-01T06:03:45.865Z,100968.28
2023-05-01T06:06:13.333Z,100971.44
2023-05-01T06:08:40.395Z,100980.06
2023-05-01T06:11:09.473Z,100973.81
2023-05-01T06:13:36.813Z,100970.03
2023-05-01T06:16:04.270Z,100971.66
2023-05-01T06:18:31.506Z,100981.31
2023-05-01T06:20:58.829Z,100974.13
2023-05-01T06:23:26.144Z,100978.41
2023-05-01T06:25:53.171Z,100978.19
2023-05-01T06:28:20.266Z,100984.19
2023-05-01T06:30:48.168Z,100980.66
2023-05-01T06:33:15.575Z,100974.25
2023-05-01T06:35:42.835Z,100982.84
2023-05-01T06:38:09.884Z,100989.31
2023-05-01T06:40:37.021Z,100991.22
2023-05-01T06:43:04.610Z,100989.31
2023-05-01T06:45:31.654Z,100995.19
2023-05-01T06:47:58.907Z,101003.81
2023-05-01T06:50:26.118Z,101001.94
2023-05-01T06:52:53.068Z,100995.56
2023-05-01T06:55:20.181Z,100992.25
2023-05-01T06:57:47.126Z,100996.44
2023-05-01T07:00:15.504Z,100983.06
2023-05-01T07:02:42.775Z,100985.53
2023-05-01T07:05:09.927Z,100971.19
2023-05-01T07:07:38.878Z,100973.78
2023-05-01T07:10:09.535Z,100977.38
2023-05-01T07:12:37.590Z,100981.63
2023-05-01T07:15:05.033Z,100989.50
2023-05-01T07:17:32.096Z,100999.19
2023-05-01T07:19:59.785Z,101006.97
2023-05-01T07:22:26.946Z,101005.91
2023-05-01T07:24:54.143Z,100998.69
2023-05-01T07:27:21.497Z,101003.94
2023-05-01T07:29:48.493Z,101018.91
2023-05-01T07:32:16.065Z,101011.91
2023-05-01T07:34:43.285Z,101023.19
2023-05-01T07:37:10.371Z,101025.75
2023-05-01T07:39:37.438Z,101022.13
2023-05-01T07:42:07.920Z,101022.06
2023-05-01T07:44:34.903Z,101028.13
2023-05-01T07:47:06.220Z,101030.69
2023-05-01T07:49:38.372Z,101044.81
2023-05-01T07:52:08.780Z,101051.56
2023-05-01T07:54:36.174Z,101056.69
2023-05-01T07:57:04.169Z,101052.13
2023-05-01T07:59:31.219Z,101058.97
2023-05-01T08:01:58.416Z,101058.84
2023-05-01T08:04:25.636Z,101063.97
2023-05-01T08:06:52.913Z,101065.63
2023-05-01T08:09:20.047Z,101073.97
2023-05-01T08:11:47.127Z,101072.00
2023-05-01T08:14:14.557Z,101083.31
2023-05-01T08:16:41.867Z,101084.06
2023-05-01T08:19:09.363Z,101077.56
2023-05-01T08:21:36.412Z,101082.69
2023-05-01T08:24:04.083Z,101090.31
2023-05-01T08:26:31.133Z,101094.47
2023-05-01T08:28:58.125Z,101090.66
2023-05-01T08:31:26.269Z,101080.78
2023-05-01T08:33:53.472Z,101092.16
2023-05-01T08:36:21.393Z,101084.19
2023-05-01T08:38:48.924Z,101082.09
2023-05-01T08:41:23.329Z,101080.22
2023-05-01T08:43:50.962Z,101083.44
2023-05-01T08:46:26.339Z,101093.00
2023-05-01T08:48:57.806Z,101091.09
2023-05-01T08:51:26.540Z,101094.69
2023-05-01T08:53:58.350Z,101099.75
2023-05-01T08:56:26.034Z,101099.75
2023-05-01T08:58:56.607Z,101097.53
2023-05-01T09:01:24.662Z,101106.25
2023-05-01T09:03:53.487Z,101113.41
2023-05-01T09:06:21.926Z,101121.03
2023-05-01T09:08:49.329Z,101112.50
2023-05-01T09:11:17.024Z,101118.75
2023-05-01T09:13:44.626Z,101136.63
2023-05-01T09:16:12.287Z,101146.88
2023-05-01T09:18:41.541Z,101145.75
2023-05-01T09:21:08.942Z,101145.09
2023-05-01T09:23:38.208Z,101148.50
2023-05-01T09:26:07.422Z,101153.81
2023-05-01T09:28:48.467Z,101154.97
2023-05-01T09:31:28.282Z,101165.97
2023-05-01T09:34:01.193Z,101164.19
2023-05-01T09:36:33.103Z,101167.72
2023-05-01T09:39:04.596Z,101179.09
2023-05-01T09:41:33.622Z,101191.53
2023-05-01T09:44:01.927Z,101189.97
2023-05-01T09:46:29.286Z,101199.59
2023-05-01T09:49:01.561Z,101201.19
2023-05-01T09:51:28.719Z,101208.34
2023-05-01T09:54:04.835Z,101212.34
2023-05-01T09:56:34.565Z,101225.13
2023-05-01T09:59:20.519Z,101221.13
2023-05-01T10:01:50.138Z,101232.97
2023-05-01T10:04:17.846Z,101240.16
2023-05-01T10:06:45.236Z,101238.72
2023-05-01T10:09:17.834Z,101238.78
2023-05-01T10:11:56.554Z,101245.13
2023-05-01T10:14:28.589Z,101253.22
2023-05-01T10:16:58.385Z,101258.59
2023-05-01T10:19:26.093Z,101251.59
2023-05-01T10:21:53.920Z,101258.88
2023-05-01T10:24:21.334Z,101253.53
2023-05-01T10:26:49.306Z,101264.34
2023-05-01T10:29:16.771Z,101267.97
2023-05-01T10:31:44.001Z,101282.06
2023-05-01T10:34:17.189Z,101285.75
2023-05-01T10:36:50.071Z,101287.66
2023-05-01T10:39:33.084Z,101294.84
2023-05-01T10:42:15.342Z,101297.41
2023-05-01T10:44:43.342Z,101295.78
2023-05-01T10:47:25.785Z,101307.38
2023-05-01T10:50:10.251Z,101310.09
2023-05-01T10:53:12.079Z,101308.41
2023-05-01T10:55:43.988Z,101311.97
2023-05-01T10:58:35.100Z,101323.63
2023-05-01T11:01:31.715Z,101317.34
2023-05-01T11:04:08.785Z,101324.41
2023-05-01T11:06:38.595Z,101336.81
2023-05-01T11:09:36.582Z,101342.47
2023-05-01T11:12:04.294Z,101336.31
2023-05-01T11:15:04.176Z,101350.50
2023-05-01T11:17:40.401Z,101339.88
2023-05-01T11:20:08.276Z,101346.06
2023-05-01T11:22:36.813Z,101343.47
2023-05-01T11:25:05.621Z,101347.25
2023-05-01T11:27:32.789Z,101355.81
2023-05-01T11:30:00.615Z,101349.81
2023-05-01T11:32:30.551Z,101348.97
2023-05-01T11:34:58.352Z,101357.88
2023-05-01T11:37:45.239Z,101362.31
2023-05-01T11:40:29.860Z,101365.94
2023-05-01T11:43:03.121Z,101371.91
2023-05-01T11:45:31.179Z,101371.47
2023-05-01T11:48:00.557Z,101370.41
2023-05-01T11:50:38.246Z,101372.78
2023-05-01T11:53:21.364Z,101374.34
2023-05-01T11:55:49.945Z,101368.88
2023-05-01T11:58:17.473Z,101375.72
2023-05-01T12:00:44.639Z,101377.25
2023-05-01T12:03:15.673Z,101386.00
2023-05-01T12:05:44.315Z,101377.94
2023-05-01T12:08:15.379Z,101381.28
2023-05-01T12:10:43.925Z,101373.16
2023-05-01T12:13:13.916Z,101370.13
2023-05-01T12:15:43.998Z,101381.56
2023-05-01T12:18:15.247Z,101384.44
2023-05-01T12:20:53.639Z,101385.31
2023-05-01T12:23:32.015Z,101388.72
2023-05-01T12:25:59.440Z,101390.56
2023-05-01T12:28:28.125Z,101395.78
2023-05-01T12:31:04.915Z,101388.72
2023-05-01T12:33:32.782Z,101396.69
2023-05-01T12:36:12.331Z,101399.19
2023-05-01T12:38:39.465Z,101401.19
2023-05-01T12:41:09.249Z,101412.72
2023-05-01T12:43:38.532Z,101407.03
2023-05-01T12:46:07.163Z,101412.56
2023-05-01T12:48:39.699Z,101410.56
2023-05-01T12:51:08.082Z,101409.78
2023-05-01T12:53:35.882Z,101417.94
2023-05-01T12:56:03.932Z,101416.56
2023-05-01T12:58:37.663Z,101422.78
2023-05-01T13:01:05.526Z,101418.59
2023-05-01T13:03:34.290Z,101423.91
2023-05-01T13:06:04.209Z,101418.19
2023-05-01T13:08:34.806Z,101435.13
2023-05-01T13:11:10.772Z,101435.31
2023-05-01T13:13:37.958Z,101440.94
2023-05-01T13:16:26.701Z,101432.34
2023-05-01T13:18:54.106Z,101432.66
2023-05-01T13:21:22.824Z,101437.16
2023-05-01T13:23:55.767Z,101430.41
2023-05-01T13:26:36.192Z,101433.94
2023-05-01T13:29:06.585Z,101431.84
2023-05-01T13:31:33.668Z,101445.16
2023-05-01T13:34:01.342Z,101444.47
2023-05-01T13:36:35.646Z,101450.78
2023-05-01T13:39:03.548Z,101448.38
2023-05-01T13:41:31.098Z,101454.66
2023-05-01T13:43:58.353Z,101453.34
2023-05-01T13:46:28.121Z,101456.63
2023-05-01T13:48:55.665Z,101460.47
2023-05-01T13:51:24.981Z,101465.78
2023-05-01T13:53:54.306Z,101461.56
2023-05-01T13:56:22.521Z,101466.72
2023-05-01T13:58:50.797Z,101464.31
2023-05-01T14:01:21.260Z,101467.97
2023-05-01T14:03:49.659Z,101471.31
2023-05-01T14:06:19.538Z,101475.94
2023-05-01T14:08:48.292Z,101476.69
2023-05-01T14:11:16.268Z,101481.38
2023-05-01T14:13:48.896Z,101477.31
2023-05-01T14:16:27.911Z,101481.84
2023-05-01T14:18:57.643Z,101473.28
2023-05-01T14:21:30.316Z,101478.97
2023-05-01T14:23:58.583Z,101477.16
2023-05-01T14:26:26.038Z,101481.38
2023-05-01T14:28:53.143Z,101497.00
2023-05-01T14:31:29.245Z,101494.06
2023-05-01T14:33:57.986Z,101493.19
2023-05-01T14:36:25.492Z,101508.16
2023-05-01T14:38:53.487Z,101500.91
2023-05-01T14:41:21.564Z,101496.75
2023-05-01T14:43:54.058Z,101504.31
2023-05-01T14:46:46.576Z,101511.91
2023-05-01T14:49:24.736Z,101509.97
2023-05-01T14:51:53.659Z,101509.03
2023-05-01T14:54:21.715Z,101512.47
2023-05-01T14:56:49.954Z,101524.78
2023-05-01T14:59:17.596Z,101530.97
2023-05-01T15:01:45.158Z,101543.31
2023-05-01T15:04:15.379Z,101538.69
2023-05-01T15:06:43.048Z,101543.84
2023-05-01T15:09:10.245Z,101538.84
2023-05-01T15:11:38.389Z,101555.41
2023-05-01T15:14:06.583Z,101571.97
2023-05-01T15:16:33.928Z,101570.78
2023-05-01T15:19:01.875Z,101568.75
2023-05-01T15:21:29.324Z,101573.91
2023-05-01T15:23:56.520Z,101578.22
2023-05-01T15:26:23.835Z,101583.19
2023-05-01T15:28:51.207Z,101595.22
2023-05-01T15:31:20.055Z,101599.34
2023-05-01T15:33:47.936Z,101606.91
2023-05-01T15:36:15.706Z,101607.13
2023-05-01T15:38:43.096Z,101616.56
2023-05-01T15:41:10.361Z,101616.25
2023-05-01T15:43:38.550Z,101613.75
2023-05-01T15:46:07.028Z,101620.38
2023-05-01T15:48:34.708Z,101628.75
2023-05-01T15:51:01.860Z,101624.97
2023-05-01T15:53:29.389Z,101634.25
2023-05-01T15:55:59.632Z,101623.56
2023-05-01T15:58:26.783Z,101632.13
2023-05-01T16:00:54.026Z,101641.50
2023-05-01T16:03:21.868Z,101639.44
2023-05-01T16:05:49.743Z,101647.16
2023-05-01T16:08:19.473Z,101659.34
2023-05-01T16:10:46.845Z,101661.09
2023-05-01T16:13:15.170Z,101667.88
2023-05-01T16:15:43.714Z,101676.47
2023-05-01T16:18:21.292Z,101685.72
2023-05-01T16:20:54.697Z,101687.19
2023-05-01T16:23:23.240Z,101691.56
2023-05-01T16:25:51.775Z,101690.44
2023-05-01T16:28:19.690Z,101695.16
2023-05-01T16:30:48.078Z,101695.25
2023-05-01T16:33:21.505Z,101703.31
2023-05-01T16:35:50.164Z,101708.63
2023-05-01T16:38:18.383Z,101715.84
2023-05-01T16:40:47.323Z,101709.59
2023-05-01T16:43:14.444Z,101710.69
2023-05-01T16:45:41.803Z,101718.50
2023-05-01T16:48:09.046Z,101721.00
2023-05-01T16:50:41.913Z,101726.22
2023-05-01T16:53:09.130Z,101722.31
2023-05-01T16:55:36.274Z,101724.53
2023-05-01T16:58:03.552Z,101731.09
2023-05-01T17:00:31.689Z,101730.75
2023-05-01T17:02:59.555Z,101733.84
2023-05-01T17:05:26.877Z,101735.59
2023-05-01T17:07:54.693Z,101740.53
2023-05-01T17:10:21.824Z,101735.75
2023-05-01T17:12:48.993Z,101743.47
2023-05-01T17:15:16.327Z,101740.44
2023-05-01T17:17:43.387Z,101745.59
2023-05-01T17:20:11.864Z,101744.47
2023-05-01T17:22:38.963Z,101747.06
2023-05-01T17:25:06.654Z,101746.03
2023-05-01T17:27:34.349Z,101755.53
2023-05-01T17:30:01.754Z,101757.28
2023-05-01T17:32:36.536Z,101753.66
2023-05-01T17:35:05.926Z,101758.81
2023-05-01T17:37:33.469Z,101768.53
2023-05-01T17:40:00.993Z,101769.22
2023-05-01T17:42:28.643Z,101771.78
2023-05-01T17:44:55.904Z,101773.41
2023-05-01T17:47:25.917Z,101776.66
2023-05-01T17:49:53.900Z,101768.66
2023-05-01T17:52:21.536Z,101770.56
2023-05-01T17:54:48.623Z,101774.09
2023-05-01T17:57:16.286Z,101780.34
2023-05-01T17:59:44.086Z,101779.31
2023-05-01T18:02:11.612Z,101795.41
2023-05-01T18:04:39.048Z,101797.13
2023-05-01T18:07:06.788Z,101795.13
2023-05-01T18:09:33.879Z,101796.00
2023-05-01T18:12:00.960Z,101807.53
2023-05-01T18:14:28.618Z,101808.56
2023-05-01T18:16:56.162Z,101801.56
2023-05-01T18:19:24.220Z,101811.66
2023-05-01T18:21:51.845Z,101804.19
2023-05-01T18:24:19.468Z,101812.25
2023-05-01T18:26:47.015Z,101809.69
2023-05-01T18:29:14.848Z,101816.75
2023-05-01T18:31:42.827Z,101814.94
2023-05-01T18:34:12.400Z,101823.03
2023-05-01T18:36:39.797Z,101832.06
2023-05-01T18:39:13.563Z,101825.94
2023-05-01T18:41:41.166Z,101831.13
2023-05-01T18:44:08.559Z,101826.78
2023-05-01T18:46:37.330Z,101817.00
2023-05-01T18:49:05.259Z,101829.38
2023-05-01T18:51:32.817Z,101840.75
2023-05-01T18:54:01.667Z,101840.97
2023-05-01T18:56:31.630Z,101843.47
2023-05-01T18:58:59.001Z,101844.06
2023-05-01T19:01:26.760Z,101847.94
2023-05-01T19:03:59.310Z,101843.28
2023-05-01T19:06:27.401Z,101850.94
2023-05-01T19:08:55.290Z,101855.13
2023-05-01T19:11:23.998Z,101857.56
2023-05-01T19:13:51.318Z,101870.03
2023-05-01T19:16:20.725Z,101876.13
2023-05-01T19:18:49.130Z,101878.78
2023-05-01T19:21:16.613Z,101881.28
2023-05-01T19:23:44.032Z,101882.84
2023-05-01T19:26:16.145Z,101879.22
2023-05-01T19:28:45.303Z,101887.97
2023-05-01T19:31:14.602Z,101892.88
2023-05-01T19:33:41.967Z,101893.59
2023-05-01T19:36:10.101Z,101890.78
2023-05-01T19:38:37.648Z,101892.22
2023-05-01T19:41:05.215Z,101894.03
2023-05-01T19:43:34.045Z,101897.47
2023-05-01T19:46:01.761Z,101903.66
2023-05-01T19:48:29.991Z,101905.38
2023-05-01T19:51:00.496Z,101907.94
2023-05-01T19:53:31.857Z,101915.03
2023-05-01T19:56:03.582Z,101909.69
2023-05-01T19:58:31.194Z,101915.03
2023-05-01T20:01:02.741Z,101925.69
2023-05-01T20:03:30.290Z,101923.19
2023-05-01T20:05:58.176Z,101921.47
2023-05-01T20:08:25.748Z,101926.03
2023-05-01T20:10:53.170Z,101941.25
2023-05-01T20:13:20.678Z,101943.22
2023-05-01T20:15:48.326Z,101944.25
2023-05-01T20:18:18.813Z,101947.09
2023-05-01T20:20:46.517Z,101956.03
2023-05-01T20:23:15.662Z,101962.34
2023-05-01T20:25:44.140Z,101970.47
2023-05-01T20:28:15.029Z,101971.41
2023-05-01T20:30:44.247Z,101967.19
2023-05-01T20:33:12.472Z,101977.09
2023-05-01T20:35:40.969Z,101967.19
2023-05-01T20:38:08.442Z,101975.34
2023-05-01T20:40:41.596Z,101975.44
2023-05-01T20:43:09.152Z,101978.19
2023-05-01T20:45:36.499Z,101979.31
2023-05-01T20:48:04.030Z,101985.56
2023-05-01T20:50:32.856Z,101986.34
2023-05-01T20:53:04.503Z,101991.91
2023-05-01T20:55:34.120Z,101991.47
2023-05-01T20:58:01.536Z,101994.75
2023-05-01T21:00:28.865Z,102000.66
2023-05-01T21:02:58.449Z,102004.59
2023-05-01T21:05:27.063Z,102009.53
2023-05-01T21:07:54.347Z,102007.19
2023-05-01T21:10:21.923Z,102020.75
2023-05-01T21:12:49.272Z,102022.81
2023-05-01T21:15:16.585Z,102010.91
2023-05-01T21:17:43.908Z,102023.44
2023-05-01T21:20:19.809Z,102027.31
2023-05-01T21:22:49.180Z,102029.34
2023-05-01T21:25:27.596Z,102029.59
2023-05-01T21:27:55.041Z,102034.28
2023-05-01T21:30:36.012Z,102032.78
2023-05-01T21:33:09.461Z,102028.53
2023-05-01T21:35:38.105Z,102026.03
2023-05-01T21:38:06.337Z,102037.84
2023-05-01T21:40:43.980Z,102049.63
2023-05-01T21:43:11.527Z,102053.34
2023-05-01T21:45:44.253Z,102065.09
2023-05-01T21:48:16.779Z,102068.81
2023-05-01T21:50:44.276Z,102069.13
2023-05-01T21:53:11.945Z,102070.09
2023-05-01T21:55:39.755Z,102073.75
2023-05-01T21:58:07.188Z,102069.50
2023-05-01T22:00:34.926Z,102075.03
2023-05-01T22:03:06.608Z,102076.97
2023-05-01T22:05:34.960Z,102084.28
2023-05-01T22:08:02.297Z,102085.28
2023-05-01T22:10:30.281Z,102084.50
2023-05-01T22:12:57.548Z,102084.56
2023-05-01T22:15:26.212Z,102092.66
2023-05-01T22:17:53.624Z,102099.09
2023-05-01T22:20:21.143Z,102102.72
2023-05-01T22:22:48.411Z,102099.31
2023-05-01T22:25:16.782Z,102097.66
2023-05-01T22:27:44.148Z,102096.00
2023-05-01T22:30:12.503Z,102094.41
2023-05-01T22:32:41.309Z,102090.97
2023-05-01T22:35:09.263Z,102097.28
2023-05-01T22:37:36.662Z,102101.72
2023-05-01T22:40:04.174Z,102107.97
2023-05-01T22:42:31.415Z,102100.94
2023-05-01T22:44:58.406Z,102104.66
2023-05-01T22:47:25.721Z,102099.47
2023-05-01T22:49:52.845Z,102097.94
2023-05-01T22:52:19.905Z,102101.47
2023-05-01T22:54:47.681Z,102106.91
2023-05-01T22:57:14.723Z,102110.47
2023-05-01T22:59:41.850Z,102100.94
2023-05-01T23:02:09.753Z,102105.44
2023-05-01T23:04:36.934Z,102105.50
2023-05-01T23:07:04.191Z,102104.75
2023-05-01T23:09:32.504Z,102109.41
2023-05-01T23:11:59.495Z,102112.06
2023-05-01T23:14:26.726Z,102105.97
2023-05-01T23:16:54.008Z,102111.34
2023-05-01T23:19:24.101Z,102112.34
2023-05-01T23:21:52.324Z,102107.09
2023-05-01T23:24:21.630Z,102103.69
2023-05-01T23:26:48.765Z,102118.78
2023-05-01T23:29:18.549Z,102119.75
2023-05-01T23:31:48.028Z,102125.06
2023-05-01T23:34:17.956Z,102122.59
2023-05-01T23:36:47.110Z,102134.06
2023-05-01T23:39:14.737Z,102130.72
2023-05-01T23:41:42.629Z,102125.47
2023-05-01T23:44:10.436Z,102131.78
2023-05-01T23:46:38.362Z,102140.56
2023-05-01T23:49:05.558Z,102141.56
2023-05-01T23:51:32.747Z,102135.53
2023-05-01T23:54:00.501Z,102138.25
2023-05-01T23:56:27.483Z,102128.63
2023-05-01T23:58:54.449Z,102130.41
